sensor_id;sensor_type;location;lat;lon;timestamp;temperature;humidity
11736;DHT22;5924;51.398;7.088;2023-03-31T00:02:19;10.10;99.90
11736;DHT22;5924;51.398;7.088;2023-03-31T00:04:46;11.50;99.90
11736;DHT22;5924;51.398;7.088;2023-03-31T00:07:20;10.10;99.90
11736;DHT22;5924;51.398;7.088;2023-03-31T00:09:49;10.10;99.90
11736;DHT22;5924;51.398;7.088;2023-03-31T00:12:19;10.10;99.90
11736;DHT22;5924;51.398;7.088;2023-03-31T00:14:45;10.10;99.90
11736;DHT22;5924;51.398;7.088;2023-03-31T00:17:11;10.20;99.90
11736;DHT22;5924;51.398;7.088;2023-03-31T00:19:37;10.10;99.90
11736;DHT22;5924;51.398;7.088;2023-03-31T00:22:04;10.20;99.90
11736;DHT22;5924;51.398;7.088;2023-03-31T00:24:31;10.20;99.90
11736;DHT22;5924;51.398;7.088;2023-03-31T00:27:06;10.30;99.90
11736;DHT22;5924;51.398;7.088;2023-03-31T00:29:31;10.30;99.90
11736;DHT22;5924;51.398;7.088;2023-03-31T00:32:00;10.30;99.90
11736;DHT22;5924;51.398;7.088;2023-03-31T00:34:26;10.30;99.90
11736;DHT22;5924;51.398;7.088;2023-03-31T00:36:52;10.20;99.90
11736;DHT22;5924;51.398;7.088;2023-03-31T00:39:21;10.20;99.90
11736;DHT22;5924;51.398;7.088;2023-03-31T00:41:48;10.20;99.90
11736;DHT22;5924;51.398;7.088;2023-03-31T00:44:19;10.30;99.90
11736;DHT22;5924;51.398;7.088;2023-03-31T00:47:04;10.40;99.90
11736;DHT22;5924;51.398;7.088;2023-03-31T00:52:18;10.50;99.90
11736;DHT22;5924;51.398;7.088;2023-03-31T00:54:58;10.60;99.90
11736;DHT22;5924;51.398;7.088;2023-03-31T00:57:27;10.60;99.90
11736;DHT22;5924;51.398;7.088;2023-03-31T01:00:00;10.60;99.90
11736;DHT22;5924;51.398;7.088;2023-03-31T01:02:30;10.60;99.90
11736;DHT22;5924;51.398;7.088;2023-03-31T01:04:58;10.70;99.90
11736;DHT22;5924;51.398;7.088;2023-03-31T01:07:42;10.70;99.90
11736;DHT22;5924;51.398;7.088;2023-03-31T01:10:08;10.60;99.90
11736;DHT22;5924;51.398;7.088;2023-03-31T01:12:37;10.60;99.90
11736;DHT22;5924;51.398;7.088;2023-03-31T01:15:05;10.60;99.90
11736;DHT22;5924;51.398;7.088;2023-03-31T01:17:32;10.50;99.90
11736;DHT22;5924;51.398;7.088;2023-03-31T01:28:40;10.20;99.90
11736;DHT22;5924;51.398;7.088;2023-03-31T01:34:06;10.10;99.90
11736;DHT22;5924;51.398;7.088;2023-03-31T01:37:04;10.10;99.90
11736;DHT22;5924;51.398;7.088;2023-03-31T01:42:51;10.00;99.90
11736;DHT22;5924;51.398;7.088;2023-03-31T01:47:57;9.90;99.90
11736;DHT22;5924;51.398;7.088;2023-03-31T01:58:25;9.80;99.90
11736;DHT22;5924;51.398;7.088;2023-03-31T02:01:02;9.90;99.90
11736;DHT22;5924;51.398;7.088;2023-03-31T02:03:37;9.90;99.90
11736;DHT22;5924;51.398;7.088;2023-03-31T02:06:11;9.90;99.90
11736;DHT22;5924;51.398;7.088;2023-03-31T02:08:45;9.90;99.90
11736;DHT22;5924;51.398;7.088;2023-03-31T02:11:13;9.90;99.90
11736;DHT22;5924;51.398;7.088;2023-03-31T02:13:40;10.00;99.90
11736;DHT22;5924;51.398;7.088;2023-03-31T02:16:14;10.00;99.90
11736;DHT22;5924;51.398;7.088;2023-03-31T02:18:42;10.00;99.90
11736;DHT22;5924;51.398;7.088;2023-03-31T02:21:09;10.00;99.90
11736;DHT22;5924;51.398;7.088;2023-03-31T02:23:37;10.10;99.90
11736;DHT22;5924;51.398;7.088;2023-03-31T02:26:11;10.00;99.90
11736;DHT22;5924;51.398;7.088;2023-03-31T02:28:38;10.10;99.90
11736;DHT22;5924;51.398;7.088;2023-03-31T02:31:12;10.10;99.90
11736;DHT22;5924;51.398;7.088;2023-03-31T02:33:40;10.00;99.90
11736;DHT22;5924;51.398;7.088;2023-03-31T02:36:06;10.00;99.90
11736;DHT22;5924;51.398;7.088;2023-03-31T02:38:39;10.00;99.90
11736;DHT22;5924;51.398;7.088;2023-03-31T02:41:09;10.00;99.90
11736;DHT22;5924;51.398;7.088;2023-03-31T02:43:35;10.00;99.90
11736;DHT22;5924;51.398;7.088;2023-03-31T02:46:00;7.50;99.90
11736;DHT22;5924;51.398;7.088;2023-03-31T02:48:38;10.00;99.90
11736;DHT22;5924;51.398;7.088;2023-03-31T02:56:53;9.90;99.90
11736;DHT22;5924;51.398;7.088;2023-03-31T02:59:36;9.90;99.90
11736;DHT22;5924;51.398;7.088;2023-03-31T03:07:24;9.80;99.90
11736;DHT22;5924;51.398;7.088;2023-03-31T03:15:50;9.70;99.90
11736;DHT22;5924;51.398;7.088;2023-03-31T03:18:17;9.70;99.90
11736;DHT22;5924;51.398;7.088;2023-03-31T03:20:43;9.70;99.90
11736;DHT22;5924;51.398;7.088;2023-03-31T03:23:14;9.70;99.90
11736;DHT22;5924;51.398;7.088;2023-03-31T03:25:40;9.70;99.90
11736;DHT22;5924;51.398;7.088;2023-03-31T03:28:06;9.60;99.90
11736;DHT22;5924;51.398;7.088;2023-03-31T03:30:32;9.60;99.90
11736;DHT22;5924;51.398;7.088;2023-03-31T03:32:57;9.60;99.90
11736;DHT22;5924;51.398;7.088;2023-03-31T03:35:24;9.60;99.90
11736;DHT22;5924;51.398;7.088;2023-03-31T03:37:49;9.60;99.90
11736;DHT22;5924;51.398;7.088;2023-03-31T03:40:15;9.60;99.90
11736;DHT22;5924;51.398;7.088;2023-03-31T03:42:41;9.60;99.90
11736;DHT22;5924;51.398;7.088;2023-03-31T03:45:07;9.60;99.90
11736;DHT22;5924;51.398;7.088;2023-03-31T03:47:33;9.60;99.90
11736;DHT22;5924;51.398;7.088;2023-03-31T03:50:01;9.60;99.90
11736;DHT22;5924;51.398;7.088;2023-03-31T03:52:26;9.60;99.90
11736;DHT22;5924;51.398;7.088;2023-03-31T03:54:52;9.60;99.90
11736;DHT22;5924;51.398;7.088;2023-03-31T03:57:18;9.60;99.90
11736;DHT22;5924;51.398;7.088;2023-03-31T03:59:43;9.70;99.90
11736;DHT22;5924;51.398;7.088;2023-03-31T04:02:09;9.60;99.90
11736;DHT22;5924;51.398;7.088;2023-03-31T04:04:35;9.60;99.90
11736;DHT22;5924;51.398;7.088;2023-03-31T04:07:00;9.60;99.90
11736;DHT22;5924;51.398;7.088;2023-03-31T04:09:26;9.60;99.90
11736;DHT22;5924;51.398;7.088;2023-03-31T04:11:53;9.60;99.90
11736;DHT22;5924;51.398;7.088;2023-03-31T04:14:18;9.60;99.90
11736;DHT22;5924;51.398;7.088;2023-03-31T04:16:44;9.70;99.90
11736;DHT22;5924;51.398;7.088;2023-03-31T04:19:12;9.60;99.90
11736;DHT22;5924;51.398;7.088;2023-03-31T04:21:38;9.70;99.90
11736;DHT22;5924;51.398;7.088;2023-03-31T04:24:13;9.60;99.90
11736;DHT22;5924;51.398;7.088;2023-03-31T04:26:46;9.60;99.90
11736;DHT22;5924;51.398;7.088;2023-03-31T04:29:15;9.60;99.90
11736;DHT22;5924;51.398;7.088;2023-03-31T04:31:42;9.60;99.90
11736;DHT22;5924;51.398;7.088;2023-03-31T04:34:09;9.60;99.90
11736;DHT22;5924;51.398;7.088;2023-03-31T04:36:42;9.70;99.90
11736;DHT22;5924;51.398;7.088;2023-03-31T04:39:12;9.70;99.90
11736;DHT22;5924;51.398;7.088;2023-03-31T04:41:38;9.70;99.90
11736;DHT22;5924;51.398;7.088;2023-03-31T04:44:04;9.70;99.90
11736;DHT22;5924;51.398;7.088;2023-03-31T04:46:31;9.70;99.90
11736;DHT22;5924;51.398;7.088;2023-03-31T04:48:56;9.70;99.90
11736;DHT22;5924;51.398;7.088;2023-03-31T04:51:23;9.70;99.90
11736;DHT22;5924;51.398;7.088;2023-03-31T04:53:49;9.70;99.90
11736;DHT22;5924;51.398;7.088;2023-03-31T04:56:15;9.70;99.90
11736;DHT22;5924;51.398;7.088;2023-03-31T04:58:40;9.70;99.90
11736;DHT22;5924;51.398;7.088;2023-03-31T05:01:06;9.70;99.90
11736;DHT22;5924;51.398;7.088;2023-03-31T05:03:32;9.70;99.90
11736;DHT22;5924;51.398;7.088;2023-03-31T05:05:59;9.70;99.90
11736;DHT22;5924;51.398;7.088;2023-03-31T05:08:24;9.60;99.90
11736;DHT22;5924;51.398;7.088;2023-03-31T05:10:51;9.60;99.90
11736;DHT22;5924;51.398;7.088;2023-03-31T05:13:17;9.60;99.90
11736;DHT22;5924;51.398;7.088;2023-03-31T05:15:43;9.60;99.90
11736;DHT22;5924;51.398;7.088;2023-03-31T05:18:15;9.50;99.90
11736;DHT22;5924;51.398;7.088;2023-03-31T05:20:41;9.50;99.90
11736;DHT22;5924;51.398;7.088;2023-03-31T05:23:06;9.50;99.90
11736;DHT22;5924;51.398;7.088;2023-03-31T05:25:32;9.50;99.90
11736;DHT22;5924;51.398;7.088;2023-03-31T05:27:59;9.50;99.90
11736;DHT22;5924;51.398;7.088;2023-03-31T05:30:25;7.40;99.90
11736;DHT22;5924;51.398;7.088;2023-03-31T05:32:51;9.50;99.90
11736;DHT22;5924;51.398;7.088;2023-03-31T05:35:16;9.50;99.90
11736;DHT22;5924;51.398;7.088;2023-03-31T05:37:42;9.50;99.90
11736;DHT22;5924;51.398;7.088;2023-03-31T05:40:08;9.50;99.90
11736;DHT22;5924;51.398;7.088;2023-03-31T05:42:35;9.50;99.90
11736;DHT22;5924;51.398;7.088;2023-03-31T05:45:01;9.50;99.90
11736;DHT22;5924;51.398;7.088;2023-03-31T05:47:27;9.50;99.90
11736;DHT22;5924;51.398;7.088;2023-03-31T05:49:52;9.60;99.90
11736;DHT22;5924;51.398;7.088;2023-03-31T05:52:18;9.70;99.90
11736;DHT22;5924;51.398;7.088;2023-03-31T05:54:44;9.60;99.90
11736;DHT22;5924;51.398;7.088;2023-03-31T05:57:10;9.60;99.90
11736;DHT22;5924;51.398;7.088;2023-03-31T05:59:36;9.60;99.90
11736;DHT22;5924;51.398;7.088;2023-03-31T06:02:02;9.70;99.90
11736;DHT22;5924;51.398;7.088;2023-03-31T06:04:28;9.70;99.90
11736;DHT22;5924;51.398;7.088;2023-03-31T06:06:55;9.70;99.90
11736;DHT22;5924;51.398;7.088;2023-03-31T06:09:23;9.70;99.90
11736;DHT22;5924;51.398;7.088;2023-03-31T06:11:49;9.70;99.90
11736;DHT22;5924;51.398;7.088;2023-03-31T06:14:15;9.80;99.90
11736;DHT22;5924;51.398;7.088;2023-03-31T06:16:40;9.80;99.90
11736;DHT22;5924;51.398;7.088;2023-03-31T06:19:06;9.80;99.90
11736;DHT22;5924;51.398;7.088;2023-03-31T06:21:32;9.70;99.90
11736;DHT22;5924;51.398;7.088;2023-03-31T06:23:58;9.70;99.90
11736;DHT22;5924;51.398;7.088;2023-03-31T06:26:25;9.70;99.90
11736;DHT22;5924;51.398;7.088;2023-03-31T06:28:52;9.60;99.90
11736;DHT22;5924;51.398;7.088;2023-03-31T06:31:20;9.60;99.90
11736;DHT22;5924;51.398;7.088;2023-03-31T06:33:46;9.60;99.90
11736;DHT22;5924;51.398;7.088;2023-03-31T06:36:14;9.50;99.90
11736;DHT22;5924;51.398;7.088;2023-03-31T06:38:41;9.50;99.90
11736;DHT22;5924;51.398;7.088;2023-03-31T06:41:08;8.20;99.90
11736;DHT22;5924;51.398;7.088;2023-03-31T06:43:36;9.40;99.90
11736;DHT22;5924;51.398;7.088;2023-03-31T06:46:02;9.40;99.90
11736;DHT22;5924;51.398;7.088;2023-03-31T06:48:28;9.40;99.90
11736;DHT22;5924;51.398;7.088;2023-03-31T06:50:54;9.30;99.90
11736;DHT22;5924;51.398;7.088;2023-03-31T06:53:20;9.30;99.90
11736;DHT22;5924;51.398;7.088;2023-03-31T06:55:48;9.30;99.90
11736;DHT22;5924;51.398;7.088;2023-03-31T06:58:14;9.30;99.90
11736;DHT22;5924;51.398;7.088;2023-03-31T07:00:40;9.30;99.90
11736;DHT22;5924;51.398;7.088;2023-03-31T07:03:06;9.30;99.90
11736;DHT22;5924;51.398;7.088;2023-03-31T07:05:33;9.30;99.90
11736;DHT22;5924;51.398;7.088;2023-03-31T07:08:00;9.30;99.90
11736;DHT22;5924;51.398;7.088;2023-03-31T07:10:28;9.30;99.90
11736;DHT22;5924;51.398;7.088;2023-03-31T07:12:54;9.30;99.90
11736;DHT22;5924;51.398;7.088;2023-03-31T07:15:20;9.30;99.90
11736;DHT22;5924;51.398;7.088;2023-03-31T07:17:45;9.30;99.90
11736;DHT22;5924;51.398;7.088;2023-03-31T07:20:16;9.20;99.90
11736;DHT22;5924;51.398;7.088;2023-03-31T07:22:43;9.20;99.90
11736;DHT22;5924;51.398;7.088;2023-03-31T07:25:11;9.20;99.90
11736;DHT22;5924;51.398;7.088;2023-03-31T07:27:37;9.30;99.90
11736;DHT22;5924;51.398;7.088;2023-03-31T07:30:05;9.20;99.90
11736;DHT22;5924;51.398;7.088;2023-03-31T07:32:31;9.20;99.90
11736;DHT22;5924;51.398;7.088;2023-03-31T07:34:57;9.20;99.90
11736;DHT22;5924;51.398;7.088;2023-03-31T07:37:23;9.20;99.90
11736;DHT22;5924;51.398;7.088;2023-03-31T07:39:49;9.20;99.90
11736;DHT22;5924;51.398;7.088;2023-03-31T07:42:15;9.20;99.90
11736;DHT22;5924;51.398;7.088;2023-03-31T07:44:41;9.30;99.90
11736;DHT22;5924;51.398;7.088;2023-03-31T07:47:07;9.30;99.90
11736;DHT22;5924;51.398;7.088;2023-03-31T07:49:33;9.30;99.90
11736;DHT22;5924;51.398;7.088;2023-03-31T07:52:00;9.30;99.90
11736;DHT22;5924;51.398;7.088;2023-03-31T07:54:26;9.40;99.90
11736;DHT22;5924;51.398;7.088;2023-03-31T07:56:52;9.40;99.90
11736;DHT22;5924;51.398;7.088;2023-03-31T07:59:18;8.50;99.90
11736;DHT22;5924;51.398;7.088;2023-03-31T08:01:43;9.40;99.90
11736;DHT22;5924;51.398;7.088;2023-03-31T08:04:11;9.50;99.90
11736;DHT22;5924;51.398;7.088;2023-03-31T08:06:37;9.50;99.90
11736;DHT22;5924;51.398;7.088;2023-03-31T08:09:03;12.20;99.90
11736;DHT22;5924;51.398;7.088;2023-03-31T08:11:31;9.80;99.90
11736;DHT22;5924;51.398;7.088;2023-03-31T08:13:57;10.00;99.90
11736;DHT22;5924;51.398;7.088;2023-03-31T08:16:22;10.20;99.90
11736;DHT22;5924;51.398;7.088;2023-03-31T08:18:48;10.30;99.90
11736;DHT22;5924;51.398;7.088;2023-03-31T08:21:14;10.40;99.90
11736;DHT22;5924;51.398;7.088;2023-03-31T08:23:40;10.40;99.90
11736;DHT22;5924;51.398;7.088;2023-03-31T08:26:14;10.40;99.90
11736;DHT22;5924;51.398;7.088;2023-03-31T08:28:42;10.40;99.90
11736;DHT22;5924;51.398;7.088;2023-03-31T08:31:08;10.50;99.90
11736;DHT22;5924;51.398;7.088;2023-03-31T08:33:35;10.50;99.90
11736;DHT22;5924;51.398;7.088;2023-03-31T08:36:03;10.50;99.90
11736;DHT22;5924;51.398;7.088;2023-03-31T08:38:29;10.50;99.90
11736;DHT22;5924;51.398;7.088;2023-03-31T08:41:00;10.50;99.90
11736;DHT22;5924;51.398;7.088;2023-03-31T08:43:32;10.50;99.90
11736;DHT22;5924;51.398;7.088;2023-03-31T08:46:01;10.50;99.90
11736;DHT22;5924;51.398;7.088;2023-03-31T08:48:57;8.80;99.90
11736;DHT22;5924;51.398;7.088;2023-03-31T08:51:33;10.60;99.90
11736;DHT22;5924;51.398;7.088;2023-03-31T08:54:06;10.60;99.90
11736;DHT22;5924;51.398;7.088;2023-03-31T08:56:39;10.60;99.90
11736;DHT22;5924;51.398;7.088;2023-03-31T09:01:53;10.70;99.90
11736;DHT22;5924;51.398;7.088;2023-03-31T09:07:46;10.80;99.90
11736;DHT22;5924;51.398;7.088;2023-03-31T09:10:22;10.90;99.90
11736;DHT22;5924;51.398;7.088;2023-03-31T09:13:21;11.10;99.90
11736;DHT22;5924;51.398;7.088;2023-03-31T09:18:38;11.50;99.90
11736;DHT22;5924;51.398;7.088;2023-03-31T09:21:34;11.80;99.90
11736;DHT22;5924;51.398;7.088;2023-03-31T09:24:18;12.10;99.90
11736;DHT22;5924;51.398;7.088;2023-03-31T09:26:57;12.30;99.90
11736;DHT22;5924;51.398;7.088;2023-03-31T09:29:41;12.50;99.90
11736;DHT22;5924;51.398;7.088;2023-03-31T09:34:41;12.70;99.90
11736;DHT22;5924;51.398;7.088;2023-03-31T09:37:10;12.80;99.90
11736;DHT22;5924;51.398;7.088;2023-03-31T09:39:37;12.70;99.90
11736;DHT22;5924;51.398;7.088;2023-03-31T09:42:03;13.90;99.90
11736;DHT22;5924;51.398;7.088;2023-03-31T09:44:38;12.60;99.90
11736;DHT22;5924;51.398;7.088;2023-03-31T09:47:13;12.50;99.90
11736;DHT22;5924;51.398;7.088;2023-03-31T09:49:44;12.30;99.90
11736;DHT22;5924;51.398;7.088;2023-03-31T09:52:16;12.10;99.90
11736;DHT22;5924;51.398;7.088;2023-03-31T09:54:49;12.00;99.90
11736;DHT22;5924;51.398;7.088;2023-03-31T09:57:27;11.80;99.90
11736;DHT22;5924;51.398;7.088;2023-03-31T10:00:21;11.70;99.90
11736;DHT22;5924;51.398;7.088;2023-03-31T10:02:56;11.70;99.90
11736;DHT22;5924;51.398;7.088;2023-03-31T10:10:51;12.30;99.90
11736;DHT22;5924;51.398;7.088;2023-03-31T10:13:33;12.60;99.90
11736;DHT22;5924;51.398;7.088;2023-03-31T10:16:06;12.80;99.90
11736;DHT22;5924;51.398;7.088;2023-03-31T10:18:41;13.00;99.90
11736;DHT22;5924;51.398;7.088;2023-03-31T10:21:21;13.20;99.90
11736;DHT22;5924;51.398;7.088;2023-03-31T10:23:48;13.20;99.90
11736;DHT22;5924;51.398;7.088;2023-03-31T10:26:21;13.20;99.90
11736;DHT22;5924;51.398;7.088;2023-03-31T10:28:48;13.00;99.90
11736;DHT22;5924;51.398;7.088;2023-03-31T10:31:17;12.90;99.90
11736;DHT22;5924;51.398;7.088;2023-03-31T10:33:47;12.70;99.90
11736;DHT22;5924;51.398;7.088;2023-03-31T10:36:33;12.50;99.90
11736;DHT22;5924;51.398;7.088;2023-03-31T10:39:05;12.50;99.90
11736;DHT22;5924;51.398;7.088;2023-03-31T10:41:31;12.90;99.90
11736;DHT22;5924;51.398;7.088;2023-03-31T10:44:00;13.00;99.90
11736;DHT22;5924;51.398;7.088;2023-03-31T10:46:46;13.50;99.90
11736;DHT22;5924;51.398;7.088;2023-03-31T10:49:26;14.10;99.90
11736;DHT22;5924;51.398;7.088;2023-03-31T10:54:18;15.00;99.90
11736;DHT22;5924;51.398;7.088;2023-03-31T10:56:51;15.40;99.90
11736;DHT22;5924;51.398;7.088;2023-03-31T10:59:46;15.60;99.90
11736;DHT22;5924;51.398;7.088;2023-03-31T11:05:48;16.00;99.90
11736;DHT22;5924;51.398;7.088;2023-03-31T11:14:12;15.70;99.90
11736;DHT22;5924;51.398;7.088;2023-03-31T11:16:57;14.70;99.90
11736;DHT22;5924;51.398;7.088;2023-03-31T11:25:31;11.00;99.90
11736;DHT22;5924;51.398;7.088;2023-03-31T11:41:38;10.60;99.90
11736;DHT22;5924;51.398;7.088;2023-03-31T11:44:09;10.70;99.90
11736;DHT22;5924;51.398;7.088;2023-03-31T11:46:38;11.00;99.90
11736;DHT22;5924;51.398;7.088;2023-03-31T11:49:26;11.40;99.90
11736;DHT22;5924;51.398;7.088;2023-03-31T11:51:56;11.80;99.90
11736;DHT22;5924;51.398;7.088;2023-03-31T11:54:36;12.10;99.90
11736;DHT22;5924;51.398;7.088;2023-03-31T11:57:15;12.30;99.90
11736;DHT22;5924;51.398;7.088;2023-03-31T11:59:52;12.50;99.90
11736;DHT22;5924;51.398;7.088;2023-03-31T12:02:26;12.60;99.90
11736;DHT22;5924;51.398;7.088;2023-03-31T12:04:55;12.70;99.90
11736;DHT22;5924;51.398;7.088;2023-03-31T12:07:31;12.70;99.90
11736;DHT22;5924;51.398;7.088;2023-03-31T12:10:21;12.60;99.90
11736;DHT22;5924;51.398;7.088;2023-03-31T12:15:43;12.50;99.90
11736;DHT22;5924;51.398;7.088;2023-03-31T12:20:49;12.60;99.90
11736;DHT22;5924;51.398;7.088;2023-03-31T12:23:22;12.70;99.90
11736;DHT22;5924;51.398;7.088;2023-03-31T12:28:35;12.80;99.90
11736;DHT22;5924;51.398;7.088;2023-03-31T12:31:04;12.80;99.90
11736;DHT22;5924;51.398;7.088;2023-03-31T12:33:42;12.70;99.90
11736;DHT22;5924;51.398;7.088;2023-03-31T12:42:20;12.30;99.90
11736;DHT22;5924;51.398;7.088;2023-03-31T12:44:37;12.00;99.90
11736;DHT22;5924;51.398;7.088;2023-03-31T12:50:21;11.70;99.90
11736;DHT22;5924;51.398;7.088;2023-03-31T12:55:56;12.00;99.90
11736;DHT22;5924;51.398;7.088;2023-03-31T13:01:21;12.40;99.90
11736;DHT22;5924;51.398;7.088;2023-03-31T13:09:00;13.60;99.90
11736;DHT22;5924;51.398;7.088;2023-03-31T13:16:37;15.20;99.90
11736;DHT22;5924;51.398;7.088;2023-03-31T13:19:03;15.40;99.90
11736;DHT22;5924;51.398;7.088;2023-03-31T13:21:29;15.30;99.90
11736;DHT22;5924;51.398;7.088;2023-03-31T13:24:00;15.00;99.90
11736;DHT22;5924;51.398;7.088;2023-03-31T13:34:53;13.60;99.90
11736;DHT22;5924;51.398;7.088;2023-03-31T13:40:24;13.10;99.90
11736;DHT22;5924;51.398;7.088;2023-03-31T13:51:52;14.10;99.90
11736;DHT22;5924;51.398;7.088;2023-03-31T14:08:00;13.40;99.90
11736;DHT22;5924;51.398;7.088;2023-03-31T14:10:35;13.80;99.90
11736;DHT22;5924;51.398;7.088;2023-03-31T14:13:09;13.20;99.90
11736;DHT22;5924;51.398;7.088;2023-03-31T14:15:38;13.30;99.90
11736;DHT22;5924;51.398;7.088;2023-03-31T14:18:05;13.50;99.90
11736;DHT22;5924;51.398;7.088;2023-03-31T14:20:54;13.80;99.90
11736;DHT22;5924;51.398;7.088;2023-03-31T14:23:39;14.00;99.90
11736;DHT22;5924;51.398;7.088;2023-03-31T14:31:23;14.50;99.90
11736;DHT22;5924;51.398;7.088;2023-03-31T14:34:11;14.50;99.90
11736;DHT22;5924;51.398;7.088;2023-03-31T14:37:06;14.50;99.90
11736;DHT22;5924;51.398;7.088;2023-03-31T14:39:41;14.40;99.90
11736;DHT22;5924;51.398;7.088;2023-03-31T14:42:18;14.30;99.90
11736;DHT22;5924;51.398;7.088;2023-03-31T14:44:46;14.30;99.90
11736;DHT22;5924;51.398;7.088;2023-03-31T14:47:24;14.30;99.90
11736;DHT22;5924;51.398;7.088;2023-03-31T14:50:16;14.30;99.90
11736;DHT22;5924;51.398;7.088;2023-03-31T14:52:50;14.10;99.90
11736;DHT22;5924;51.398;7.088;2023-03-31T14:55:19;13.90;99.90
11736;DHT22;5924;51.398;7.088;2023-03-31T14:57:48;14.00;99.90
11736;DHT22;5924;51.398;7.088;2023-03-31T15:00:22;13.60;99.90
11736;DHT22;5924;51.398;7.088;2023-03-31T15:02:49;13.50;99.90
11736;DHT22;5924;51.398;7.088;2023-03-31T15:05:35;13.40;99.90
11736;DHT22;5924;51.398;7.088;2023-03-31T15:08:05;13.40;99.90
11736;DHT22;5924;51.398;7.088;2023-03-31T15:10:42;13.40;99.90
11736;DHT22;5924;51.398;7.088;2023-03-31T15:13:15;13.20;99.90
11736;DHT22;5924;51.398;7.088;2023-03-31T15:15:41;13.20;99.90
11736;DHT22;5924;51.398;7.088;2023-03-31T15:18:11;13.20;99.90
11736;DHT22;5924;51.398;7.088;2023-03-31T15:20:40;13.20;99.90
11736;DHT22;5924;51.398;7.088;2023-03-31T15:23:24;13.30;99.90
11736;DHT22;5924;51.398;7.088;2023-03-31T15:25:57;13.20;99.90
11736;DHT22;5924;51.398;7.088;2023-03-31T15:28:25;13.10;99.90
11736;DHT22;5924;51.398;7.088;2023-03-31T15:30:52;12.70;99.90
11736;DHT22;5924;51.398;7.088;2023-03-31T15:33:21;12.00;99.90
11736;DHT22;5924;51.398;7.088;2023-03-31T15:35:49;11.30;99.90
11736;DHT22;5924;51.398;7.088;2023-03-31T15:38:15;9.60;99.90
11736;DHT22;5924;51.398;7.088;2023-03-31T15:40:51;10.80;99.90
11736;DHT22;5924;51.398;7.088;2023-03-31T15:45:55;10.90;99.90
11736;DHT22;5924;51.398;7.088;2023-03-31T15:48:54;11.10;99.90
11736;DHT22;5924;51.398;7.088;2023-03-31T15:51:27;11.10;99.90
11736;DHT22;5924;51.398;7.088;2023-03-31T15:53:54;11.00;99.90
11736;DHT22;5924;51.398;7.088;2023-03-31T15:59:01;11.10;99.90
11736;DHT22;5924;51.398;7.088;2023-03-31T16:01:37;11.10;99.90
11736;DHT22;5924;51.398;7.088;2023-03-31T16:04:09;11.00;99.90
11736;DHT22;5924;51.398;7.088;2023-03-31T16:06:44;11.00;99.90
11736;DHT22;5924;51.398;7.088;2023-03-31T16:12:14;10.90;99.90
11736;DHT22;5924;51.398;7.088;2023-03-31T16:17:37;12.20;99.90
11736;DHT22;5924;51.398;7.088;2023-03-31T16:20:09;10.80;99.90
11736;DHT22;5924;51.398;7.088;2023-03-31T16:22:44;10.80;99.90
11736;DHT22;5924;51.398;7.088;2023-03-31T16:25:14;10.80;99.90
11736;DHT22;5924;51.398;7.088;2023-03-31T16:27:43;9.80;99.90
11736;DHT22;5924;51.398;7.088;2023-03-31T16:30:17;11.00;99.90
11736;DHT22;5924;51.398;7.088;2023-03-31T16:33:09;11.10;99.90
11736;DHT22;5924;51.398;7.088;2023-03-31T16:35:44;11.10;99.90
11736;DHT22;5924;51.398;7.088;2023-03-31T16:38:11;11.00;99.90
11736;DHT22;5924;51.398;7.088;2023-03-31T16:40:42;11.00;99.90
11736;DHT22;5924;51.398;7.088;2023-03-31T16:45:46;10.90;99.90
11736;DHT22;5924;51.398;7.088;2023-03-31T16:48:13;10.80;99.90
11736;DHT22;5924;51.398;7.088;2023-03-31T16:50:40;10.60;99.90
11736;DHT22;5924;51.398;7.088;2023-03-31T16:53:06;10.60;99.90
11736;DHT22;5924;51.398;7.088;2023-03-31T16:55:33;10.50;99.90
11736;DHT22;5924;51.398;7.088;2023-03-31T16:57:59;10.50;99.90
11736;DHT22;5924;51.398;7.088;2023-03-31T17:00:29;10.50;99.90
11736;DHT22;5924;51.398;7.088;2023-03-31T17:02:56;10.40;99.90
11736;DHT22;5924;51.398;7.088;2023-03-31T17:05:22;10.40;99.90
11736;DHT22;5924;51.398;7.088;2023-03-31T17:07:48;10.30;99.90
11736;DHT22;5924;51.398;7.088;2023-03-31T17:10:14;10.30;99.90
11736;DHT22;5924;51.398;7.088;2023-03-31T17:12:40;10.30;99.90
11736;DHT22;5924;51.398;7.088;2023-03-31T17:15:07;10.30;99.90
11736;DHT22;5924;51.398;7.088;2023-03-31T17:17:32;10.30;99.90
11736;DHT22;5924;51.398;7.088;2023-03-31T17:19:58;10.20;99.90
11736;DHT22;5924;51.398;7.088;2023-03-31T17:22:25;10.20;99.90
11736;DHT22;5924;51.398;7.088;2023-03-31T17:24:50;11.50;99.90
11736;DHT22;5924;51.398;7.088;2023-03-31T17:27:23;11.90;99.90
11736;DHT22;5924;51.398;7.088;2023-03-31T17:29:49;10.10;99.90
11736;DHT22;5924;51.398;7.088;2023-03-31T17:32:15;10.10;99.90
11736;DHT22;5924;51.398;7.088;2023-03-31T17:34:42;10.00;99.90
11736;DHT22;5924;51.398;7.088;2023-03-31T17:37:08;10.00;99.90
11736;DHT22;5924;51.398;7.088;2023-03-31T17:39:35;10.00;99.90
11736;DHT22;5924;51.398;7.088;2023-03-31T17:42:00;9.90;99.90
11736;DHT22;5924;51.398;7.088;2023-03-31T17:44:27;9.80;99.90
11736;DHT22;5924;51.398;7.088;2023-03-31T17:46:52;9.80;99.90
11736;DHT22;5924;51.398;7.088;2023-03-31T17:49:18;9.70;99.90
11736;DHT22;5924;51.398;7.088;2023-03-31T17:51:44;9.70;99.90
11736;DHT22;5924;51.398;7.088;2023-03-31T17:54:10;9.70;99.90
11736;DHT22;5924;51.398;7.088;2023-03-31T17:56:36;9.70;99.90
11736;DHT22;5924;51.398;7.088;2023-03-31T17:59:03;9.70;99.90
11736;DHT22;5924;51.398;7.088;2023-03-31T18:01:29;9.60;99.90
11736;DHT22;5924;51.398;7.088;2023-03-31T18:03:55;9.60;99.90
11736;DHT22;5924;51.398;7.088;2023-03-31T18:06:22;9.60;99.90
11736;DHT22;5924;51.398;7.088;2023-03-31T18:08:49;9.60;99.90
11736;DHT22;5924;51.398;7.088;2023-03-31T18:11:16;10.50;99.90
11736;DHT22;5924;51.398;7.088;2023-03-31T18:13:42;9.50;99.90
11736;DHT22;5924;51.398;7.088;2023-03-31T18:16:08;9.50;99.90
11736;DHT22;5924;51.398;7.088;2023-03-31T18:18:36;9.50;99.90
11736;DHT22;5924;51.398;7.088;2023-03-31T18:21:07;9.50;99.90
11736;DHT22;5924;51.398;7.088;2023-03-31T18:23:34;9.50;99.90
11736;DHT22;5924;51.398;7.088;2023-03-31T18:26:00;9.50;99.90
11736;DHT22;5924;51.398;7.088;2023-03-31T18:28:26;9.50;99.90
11736;DHT22;5924;51.398;7.088;2023-03-31T18:30:52;9.50;99.90
11736;DHT22;5924;51.398;7.088;2023-03-31T18:33:18;9.50;99.90
11736;DHT22;5924;51.398;7.088;2023-03-31T18:35:44;9.50;99.90
11736;DHT22;5924;51.398;7.088;2023-03-31T18:38:14;9.50;99.90
11736;DHT22;5924;51.398;7.088;2023-03-31T18:40:47;9.50;99.90
11736;DHT22;5924;51.398;7.088;2023-03-31T18:43:14;9.50;99.90
11736;DHT22;5924;51.398;7.088;2023-03-31T18:45:39;9.50;99.90
11736;DHT22;5924;51.398;7.088;2023-03-31T18:48:06;9.50;99.90
11736;DHT22;5924;51.398;7.088;2023-03-31T18:50:32;9.50;99.90
11736;DHT22;5924;51.398;7.088;2023-03-31T18:52:57;9.50;99.90
11736;DHT22;5924;51.398;7.088;2023-03-31T18:55:23;9.40;99.90
11736;DHT22;5924;51.398;7.088;2023-03-31T18:57:49;9.40;99.90
11736;DHT22;5924;51.398;7.088;2023-03-31T19:00:15;9.50;99.90
11736;DHT22;5924;51.398;7.088;2023-03-31T19:02:41;9.50;99.90
11736;DHT22;5924;51.398;7.088;2023-03-31T19:05:07;9.50;99.90
11736;DHT22;5924;51.398;7.088;2023-03-31T19:07:33;9.50;99.90
11736;DHT22;5924;51.398;7.088;2023-03-31T19:10:00;9.50;99.90